Time;durP1;ratioP1;P1;durP2;ratioP2;P2;SDS_P1;SDS_P2;PMS_P1;PMS_P2;Temp;Humidity;BMP_temperature;BMP_pressure;BME280_temperature;BME280_humidity;BME280_pressure;Samples;Min_cycle;Max_cycle;Signal;HPM_P1;HPM_P2
2022/03/15 00:00:33;;;;;;;7.10;5.63;;;;;;;;;;5038940;28;20750;-83
2022/03/15 00:06:20;;;;;;;5.87;5.27;;;;;;;;;;5035449;28;20230;-82
2022/03/15 00:08:47;;;;;;;6.13;5.53;;;;;;;;;;5037523;28;20202;-82
2022/03/15 00:11:15;;;;;;;11.87;5.57;;;;;;;;;;5017253;28;20239;-82
2022/03/15 00:13:43;;;;;;;9.27;6.20;;;;;;;;;;5016029;28;20208;-82
2022/03/15 00:16:11;;;;;;;9.27;6.23;;;;;;;;;;5018998;28;20254;-81
2022/03/15 00:18:38;;;;;;;6.37;5.77;;;;;;;;;;5019388;28;20214;-82
2022/03/15 00:21:07;;;;;;;6.93;5.70;;;;;;;;;;5017203;28;20239;-82
2022/03/15 00:23:34;;;;;;;8.17;5.33;;;;;;;;;;5017588;28;20215;-82
2022/03/15 00:26:01;;;;;;;5.90;5.40;;;;;;;;;;5016377;28;20242;-82
2022/03/15 00:28:31;;;;;;;9.97;6.60;;;;;;;;;;5017840;28;20214;-83
2022/03/15 00:30:58;;;;;;;7.17;5.93;;;;;;;;;;5022192;28;20243;-82
2022/03/15 00:33:25;;;;;;;9.67;6.13;;;;;;;;;;5037852;28;20253;-82
2022/03/15 00:35:53;;;;;;;9.37;5.90;;;;;;;;;;5038232;28;20322;-83
2022/03/15 00:38:21;;;;;;;12.63;6.57;;;;;;;;;;5036714;28;20216;-82
2022/03/15 00:40:48;;;;;;;7.93;6.27;;;;;;;;;;5036042;28;20331;-83
2022/03/15 00:43:15;;;;;;;10.93;6.67;;;;;;;;;;5038297;28;20234;-83
2022/03/15 00:45:43;;;;;;;8.10;6.30;;;;;;;;;;5036527;28;20284;-81
2022/03/15 00:48:10;;;;;;;8.70;5.90;;;;;;;;;;5036645;28;20555;-82
2022/03/15 00:50:41;;;;;;;7.83;6.43;;;;;;;;;;5036742;28;20284;-82
2022/03/15 00:53:09;;;;;;;7.87;6.37;;;;;;;;;;5036514;28;20674;-82
2022/03/15 00:55:36;;;;;;;7.17;6.47;;;;;;;;;;5036024;28;20238;-82
2022/03/15 00:58:03;;;;;;;8.50;6.33;;;;;;;;;;5036635;28;20215;-82
2022/03/15 01:00:31;;;;;;;10.90;6.60;;;;;;;;;;5036571;28;20238;-81
2022/03/15 01:03:00;;;;;;;6.87;5.93;;;;;;;;;;5037757;28;20234;-82
2022/03/15 01:05:27;;;;;;;7.00;5.50;;;;;;;;;;5035394;28;20603;-82
2022/03/15 01:07:54;;;;;;;6.67;5.83;;;;;;;;;;5037359;28;20213;-81
2022/03/15 01:10:21;;;;;;;7.70;5.67;;;;;;;;;;5035658;28;20230;-83
2022/03/15 01:12:48;;;;;;;7.53;5.70;;;;;;;;;;5036232;28;20262;-82
2022/03/15 01:15:16;;;;;;;6.10;5.50;;;;;;;;;;5035466;28;20234;-82
2022/03/15 01:17:43;;;;;;;9.17;6.03;;;;;;;;;;5035505;28;20206;-83
2022/03/15 01:20:12;;;;;;;7.60;6.17;;;;;;;;;;5035463;28;20246;-82
2022/03/15 01:22:39;;;;;;;6.47;5.80;;;;;;;;;;5036945;28;20226;-82
2022/03/15 01:25:07;;;;;;;7.40;5.90;;;;;;;;;;5035260;28;20263;-82
2022/03/15 01:27:34;;;;;;;5.30;4.80;;;;;;;;;;5036573;28;20206;-83
2022/03/15 01:30:01;;;;;;;7.20;6.13;;;;;;;;;;5035812;28;20658;-81
2022/03/15 01:32:28;;;;;;;7.90;6.80;;;;;;;;;;5036278;28;20238;-82
2022/03/15 01:34:55;;;;;;;7.97;5.93;;;;;;;;;;5035497;28;20597;-81
2022/03/15 01:37:24;;;;;;;7.77;5.40;;;;;;;;;;5035356;28;20746;-82
2022/03/15 01:39:51;;;;;;;9.00;6.03;;;;;;;;;;5035713;28;20269;-82
2022/03/15 01:42:18;;;;;;;7.50;5.83;;;;;;;;;;5036454;28;20231;-83
2022/03/15 01:44:49;;;;;;;9.87;6.27;;;;;;;;;;5036086;28;20285;-82
2022/03/15 01:47:17;;;;;;;6.67;5.90;;;;;;;;;;5037364;28;20210;-82
2022/03/15 01:49:44;;;;;;;13.03;6.90;;;;;;;;;;5037615;28;20234;-82
2022/03/15 01:52:12;;;;;;;11.57;6.77;;;;;;;;;;5036801;28;20321;-82
2022/03/15 01:54:41;;;;;;;8.07;6.20;;;;;;;;;;5034512;28;20191;-82
2022/03/15 01:57:08;;;;;;;7.63;6.03;;;;;;;;;;5035105;28;20233;-82
2022/03/15 01:59:36;;;;;;;8.40;6.10;;;;;;;;;;5036073;28;20206;-83
2022/03/15 02:02:04;;;;;;;8.37;6.33;;;;;;;;;;5034769;28;20237;-82
2022/03/15 02:04:32;;;;;;;16.53;6.33;;;;;;;;;;5035476;28;20678;-82
2022/03/15 02:07:03;;;;;;;9.57;6.93;;;;;;;;;;5035238;28;20215;-81
2022/03/15 02:09:30;;;;;;;10.47;6.77;;;;;;;;;;5034958;28;20198;-84
2022/03/15 02:11:58;;;;;;;11.13;6.43;;;;;;;;;;5036501;28;20238;-81
2022/03/15 02:14:25;;;;;;;14.13;7.37;;;;;;;;;;5034782;28;20211;-82
2022/03/15 02:16:53;;;;;;;8.80;6.40;;;;;;;;;;5035961;28;20213;-82
2022/03/15 02:19:20;;;;;;;11.10;7.10;;;;;;;;;;5036118;28;20671;-82
2022/03/15 02:21:48;;;;;;;12.23;7.50;;;;;;;;;;5037076;28;20242;-81
2022/03/15 02:24:15;;;;;;;9.87;6.87;;;;;;;;;;5036300;28;20578;-82
2022/03/15 02:26:43;;;;;;;8.27;6.53;;;;;;;;;;5036042;28;20262;-82
2022/03/15 02:29:10;;;;;;;10.57;6.63;;;;;;;;;;5035860;28;20671;-83
2022/03/15 02:31:37;;;;;;;7.37;6.27;;;;;;;;;;5035302;28;20240;-82
2022/03/15 02:34:04;;;;;;;10.73;6.77;;;;;;;;;;5036834;28;20210;-83
2022/03/15 02:36:31;;;;;;;8.83;7.07;;;;;;;;;;5035483;28;20257;-82
2022/03/15 02:39:00;;;;;;;9.87;7.53;;;;;;;;;;5035840;28;20218;-82
2022/03/15 02:41:27;;;;;;;9.40;7.20;;;;;;;;;;5036381;28;20726;-82
2022/03/15 02:43:56;;;;;;;9.77;6.83;;;;;;;;;;5036315;28;20214;-83
2022/03/15 02:46:23;;;;;;;8.03;6.17;;;;;;;;;;5035774;28;20288;-84
2022/03/15 02:48:50;;;;;;;12.90;7.40;;;;;;;;;;5038615;28;20580;-82
2022/03/15 02:51:17;;;;;;;12.00;7.33;;;;;;;;;;5036974;28;20254;-83
2022/03/15 02:53:44;;;;;;;8.77;6.87;;;;;;;;;;5062070;22;20447;-79
2022/03/15 02:56:12;;;;;;;10.20;7.50;;;;;;;;;;5025343;28;20231;-79
2022/03/15 02:58:40;;;;;;;13.43;7.27;;;;;;;;;;5016068;28;20861;-79
2022/03/15 03:01:07;;;;;;;12.27;7.17;;;;;;;;;;5015484;28;20235;-81
2022/03/15 03:03:35;;;;;;;11.80;7.67;;;;;;;;;;5019457;28;20202;-81
2022/03/15 03:06:02;;;;;;;13.17;7.73;;;;;;;;;;5035801;28;20262;-79
2022/03/15 03:08:30;;;;;;;8.57;7.33;;;;;;;;;;5036450;28;20597;-79
2022/03/15 03:10:58;;;;;;;9.60;7.20;;;;;;;;;;5035188;28;20647;-79
2022/03/15 03:13:27;;;;;;;15.20;7.40;;;;;;;;;;5035898;28;20213;-79
2022/03/15 03:15:56;;;;;;;11.83;6.90;;;;;;;;;;5035595;28;20724;-78
2022/03/15 03:18:23;;;;;;;10.83;7.43;;;;;;;;;;5035346;28;20682;-78
2022/03/15 03:20:52;;;;;;;12.23;7.90;;;;;;;;;;5035576;28;20231;-80
2022/03/15 03:23:19;;;;;;;10.60;7.53;;;;;;;;;;5036153;28;20297;-80
2022/03/15 03:25:46;;;;;;;10.53;7.60;;;;;;;;;;5035154;28;20242;-78
2022/03/15 03:28:13;;;;;;;13.10;7.33;;;;;;;;;;5038620;28;20202;-80
2022/03/15 03:30:45;;;;;;;10.23;6.80;;;;;;;;;;5035433;28;20742;-79
2022/03/15 03:33:12;;;;;;;9.57;6.80;;;;;;;;;;5035871;28;20230;-79
2022/03/15 03:35:39;;;;;;;9.70;7.33;;;;;;;;;;5035157;28;20245;-80
2022/03/15 03:38:06;;;;;;;10.67;6.13;;;;;;;;;;5035776;28;20214;-79
2022/03/15 03:40:34;;;;;;;9.00;7.23;;;;;;;;;;5034744;28;20617;-79
2022/03/15 03:43:01;;;;;;;9.80;6.87;;;;;;;;;;5035592;28;20576;-79
2022/03/15 03:45:28;;;;;;;7.37;6.67;;;;;;;;;;5034780;28;20235;-80
2022/03/15 03:47:56;;;;;;;6.43;5.83;;;;;;;;;;5035362;28;20203;-79
2022/03/15 03:50:23;;;;;;;7.83;6.07;;;;;;;;;;5034457;28;20673;-79
2022/03/15 03:52:50;;;;;;;13.93;7.07;;;;;;;;;;5035370;28;20245;-79
2022/03/15 03:55:17;;;;;;;8.50;6.63;;;;;;;;;;5034938;28;20242;-79
2022/03/15 03:57:44;;;;;;;8.77;6.13;;;;;;;;;;5035044;28;20217;-79
2022/03/15 04:00:12;;;;;;;8.07;6.80;;;;;;;;;;5033930;28;20246;-79
2022/03/15 04:02:39;;;;;;;7.80;6.97;;;;;;;;;;5035330;28;20211;-79
2022/03/15 04:05:08;;;;;;;10.53;6.70;;;;;;;;;;5034326;28;20238;-79
2022/03/15 04:07:39;;;;;;;6.63;5.93;;;;;;;;;;5015496;28;20210;-79
2022/03/15 04:10:07;;;;;;;7.83;6.77;;;;;;;;;;5029251;28;20636;-80
2022/03/15 04:12:34;;;;;;;10.20;7.07;;;;;;;;;;5034970;28;20210;-80
2022/03/15 04:15:01;;;;;;;10.63;7.40;;;;;;;;;;5034694;28;20242;-79
2022/03/15 04:17:28;;;;;;;9.23;7.33;;;;;;;;;;5035062;28;20611;-79
2022/03/15 04:20:05;;;;;;;9.37;7.20;;;;;;;;;;5034355;28;20620;-79
2022/03/15 04:22:34;;;;;;;14.07;7.77;;;;;;;;;;5034975;28;20313;-79
2022/03/15 04:25:01;;;;;;;9.83;6.60;;;;;;;;;;5035144;28;20240;-79
2022/03/15 04:27:28;;;;;;;9.57;7.03;;;;;;;;;;5034520;28;20557;-79
2022/03/15 04:29:55;;;;;;;12.30;7.03;;;;;;;;;;5034217;28;20235;-79
2022/03/15 04:32:22;;;;;;;10.50;8.03;;;;;;;;;;5040065;28;20290;-79
2022/03/15 04:34:49;;;;;;;13.33;7.80;;;;;;;;;;5057021;28;20242;-82
2022/03/15 04:37:18;;;;;;;12.97;8.33;;;;;;;;;;5041584;28;20207;-79
2022/03/15 04:39:47;;;;;;;11.80;8.47;;;;;;;;;;5035670;28;20234;-79
2022/03/15 04:42:14;;;;;;;8.87;7.47;;;;;;;;;;5035315;28;20280;-79
2022/03/15 04:44:41;;;;;;;9.73;8.03;;;;;;;;;;5034711;28;20250;-81
2022/03/15 04:47:08;;;;;;;14.67;8.20;;;;;;;;;;5034885;28;20218;-79
2022/03/15 04:49:35;;;;;;;10.30;7.13;;;;;;;;;;5034256;28;20632;-81
2022/03/15 04:52:03;;;;;;;9.13;7.70;;;;;;;;;;5034281;28;20234;-79
2022/03/15 04:54:30;;;;;;;9.93;8.37;;;;;;;;;;5033779;28;20245;-79
2022/03/15 04:56:58;;;;;;;12.20;8.10;;;;;;;;;;5034392;28;20230;-79
2022/03/15 04:59:25;;;;;;;11.03;8.40;;;;;;;;;;5034071;28;20210;-79
2022/03/15 05:01:53;;;;;;;11.43;8.50;;;;;;;;;;5033720;28;20600;-79
2022/03/15 05:04:20;;;;;;;16.50;8.10;;;;;;;;;;5033960;28;20234;-79
2022/03/15 05:06:47;;;;;;;13.57;9.03;;;;;;;;;;5033858;28;20207;-78
2022/03/15 05:09:14;;;;;;;13.77;8.47;;;;;;;;;;5033950;28;20203;-79
2022/03/15 05:11:44;;;;;;;10.97;8.30;;;;;;;;;;5030943;28;20230;-79
2022/03/15 05:14:12;;;;;;;11.50;8.30;;;;;;;;;;5035257;28;20238;-79
2022/03/15 05:16:39;;;;;;;10.73;9.20;;;;;;;;;;5034157;28;20258;-79
2022/03/15 05:19:07;;;;;;;10.13;8.03;;;;;;;;;;5034104;28;20213;-79
2022/03/15 05:21:34;;;;;;;11.90;7.80;;;;;;;;;;5033341;28;20234;-79
2022/03/15 05:24:01;;;;;;;12.47;8.37;;;;;;;;;;5033991;28;20726;-79
2022/03/15 05:26:28;;;;;;;11.13;8.47;;;;;;;;;;5032435;28;20238;-79
2022/03/15 05:28:55;;;;;;;15.17;9.13;;;;;;;;;;5033601;28;20584;-79
2022/03/15 05:31:26;;;;;;;14.80;9.00;;;;;;;;;;5032787;28;20713;-78
2022/03/15 05:33:53;;;;;;;11.00;8.37;;;;;;;;;;5033117;28;20571;-78
2022/03/15 05:36:20;;;;;;;14.20;7.90;;;;;;;;;;5033094;28;20797;-79
2022/03/15 05:38:47;;;;;;;11.73;8.23;;;;;;;;;;5033506;28;20221;-79
2022/03/15 05:41:15;;;;;;;16.07;8.17;;;;;;;;;;5035131;28;20238;-80
2022/03/15 05:43:47;;;;;;;11.80;8.73;;;;;;;;;;5036846;28;20231;-80
2022/03/15 05:46:15;;;;;;;15.63;8.47;;;;;;;;;;5036089;28;20230;-80
2022/03/15 05:48:43;;;;;;;12.47;8.90;;;;;;;;;;5036035;28;20268;-82
2022/03/15 05:51:10;;;;;;;17.87;10.30;;;;;;;;;;5034894;28;20649;-81
2022/03/15 05:53:37;;;;;;;14.93;9.67;;;;;;;;;;5033795;28;20305;-80
2022/03/15 05:56:05;;;;;;;13.57;8.43;;;;;;;;;;5037402;28;20238;-81
2022/03/15 05:58:32;;;;;;;11.97;8.67;;;;;;;;;;5036665;28;20221;-81
2022/03/15 06:00:59;;;;;;;11.37;8.77;;;;;;;;;;5041758;28;20238;-81
2022/03/15 06:03:26;;;;;;;22.27;10.97;;;;;;;;;;5044800;28;20210;-82
2022/03/15 06:05:54;;;;;;;17.07;10.40;;;;;;;;;;5043353;28;20249;-82
2022/03/15 06:08:21;;;;;;;14.13;10.23;;;;;;;;;;5041621;28;20588;-83
2022/03/15 06:10:49;;;;;;;13.50;8.37;;;;;;;;;;5040700;28;20238;-82
2022/03/15 06:13:16;;;;;;;12.43;8.67;;;;;;;;;;5042482;28;20229;-82
2022/03/15 06:15:43;;;;;;;10.63;8.23;;;;;;;;;;5040943;28;20248;-80
2022/03/15 06:18:10;;;;;;;13.20;8.97;;;;;;;;;;5034397;28;20202;-82
2022/03/15 06:20:38;;;;;;;12.10;8.87;;;;;;;;;;5037194;28;20234;-82
2022/03/15 06:23:07;;;;;;;12.67;8.13;;;;;;;;;;5039433;28;20219;-82
2022/03/15 06:25:36;;;;;;;12.20;8.70;;;;;;;;;;5039636;28;20709;-83
2022/03/15 06:28:03;;;;;;;10.67;8.73;;;;;;;;;;5043539;28;20240;-84
2022/03/15 06:30:31;;;;;;;15.53;9.40;;;;;;;;;;5041598;28;20245;-85
2022/03/15 06:32:59;;;;;;;16.67;8.93;;;;;;;;;;5041839;28;20199;-82
2022/03/15 06:35:32;;;;;;;11.13;8.63;;;;;;;;;;5041479;28;20238;-82
2022/03/15 06:38:01;;;;;;;11.90;8.73;;;;;;;;;;5048808;28;20574;-82
2022/03/15 06:40:35;;;;;;;10.73;8.80;;;;;;;;;;5038195;28;20713;-82
2022/03/15 06:43:02;;;;;;;12.77;8.63;;;;;;;;;;5038521;28;20265;-82
2022/03/15 06:45:29;;;;;;;11.83;8.87;;;;;;;;;;5038751;28;20245;-82
2022/03/15 06:47:56;;;;;;;14.53;8.90;;;;;;;;;;5039768;28;20195;-82
2022/03/15 06:50:23;;;;;;;18.70;9.07;;;;;;;;;;5040150;28;20253;-83
2022/03/15 06:52:50;;;;;;;12.10;8.87;;;;;;;;;;5040330;28;20217;-82
2022/03/15 06:55:17;;;;;;;13.40;9.23;;;;;;;;;;5042036;28;20242;-84
2022/03/15 06:57:46;;;;;;;23.53;10.17;;;;;;;;;;5043520;28;20206;-82
2022/03/15 07:00:15;;;;;;;17.53;9.47;;;;;;;;;;5041934;28;20230;-82
2022/03/15 07:02:42;;;;;;;17.37;10.17;;;;;;;;;;5042374;28;20226;-82
2022/03/15 07:05:10;;;;;;;16.07;9.27;;;;;;;;;;5044103;28;20235;-82
2022/03/15 07:07:37;;;;;;;15.37;9.50;;;;;;;;;;5041351;28;20207;-82
2022/03/15 07:10:05;;;;;;;13.80;9.40;;;;;;;;;;5041185;28;20633;-84
2022/03/15 07:12:33;;;;;;;11.83;9.13;;;;;;;;;;5042734;28;20566;-82
2022/03/15 07:15:02;;;;;;;21.07;9.40;;;;;;;;;;5040860;28;20604;-82
2022/03/15 07:17:30;;;;;;;16.77;9.53;;;;;;;;;;5041972;28;20276;-82
2022/03/15 07:19:57;;;;;;;12.20;9.53;;;;;;;;;;5038276;28;20690;-80
2022/03/15 07:22:24;;;;;;;19.23;10.67;;;;;;;;;;5036466;28;20756;-80
2022/03/15 07:24:52;;;;;;;14.17;9.60;;;;;;;;;;5027754;28;20263;-80
2022/03/15 07:27:19;;;;;;;22.97;10.97;;;;;;;;;;5031417;28;20575;-80
2022/03/15 07:29:46;;;;;;;17.63;10.57;;;;;;;;;;5031796;28;20245;-80
2022/03/15 07:32:17;;;;;;;18.90;11.50;;;;;;;;;;5018744;28;20207;-81
2022/03/15 07:34:44;;;;;;;17.27;10.73;;;;;;;;;;5018720;28;20250;-80
2022/03/15 07:37:13;;;;;;;17.93;11.23;;;;;;;;;;5018312;28;20227;-80
2022/03/15 07:39:41;;;;;;;13.63;10.00;;;;;;;;;;5038051;28;20227;-80
2022/03/15 07:42:08;;;;;;;16.57;10.63;;;;;;;;;;5037337;28;20246;-80
2022/03/15 07:44:35;;;;;;;15.37;9.50;;;;;;;;;;5019205;28;20231;-82
2022/03/15 07:47:02;;;;;;;14.37;10.83;;;;;;;;;;5019848;28;20211;-80
2022/03/15 07:49:31;;;;;;;16.23;10.37;;;;;;;;;;5019140;28;20601;-80
2022/03/15 07:51:58;;;;;;;14.13;11.33;;;;;;;;;;5019088;28;20229;-81
2022/03/15 07:54:25;;;;;;;18.47;11.50;;;;;;;;;;5018831;28;20616;-82
2022/03/15 07:56:52;;;;;;;23.40;11.77;;;;;;;;;;5019602;28;20219;-81
2022/03/15 07:59:19;;;;;;;22.63;11.27;;;;;;;;;;5018885;28;20239;-80
2022/03/15 08:01:47;;;;;;;16.83;10.40;;;;;;;;;;5018748;28;20227;-80
2022/03/15 08:04:14;;;;;;;15.13;10.23;;;;;;;;;;5019689;28;20235;-80
2022/03/15 08:06:43;;;;;;;16.33;10.83;;;;;;;;;;5019354;28;20328;-83
2022/03/15 08:09:14;;;;;;;15.93;10.60;;;;;;;;;;5018917;28;20216;-81
2022/03/15 08:11:41;;;;;;;14.17;10.13;;;;;;;;;;5020099;28;20316;-81
2022/03/15 08:14:09;;;;;;;27.10;12.03;;;;;;;;;;5039383;28;20710;-81
2022/03/15 08:16:36;;;;;;;16.03;11.67;;;;;;;;;;5038451;28;20272;-81
2022/03/15 08:19:03;;;;;;;15.73;11.63;;;;;;;;;;5038718;28;20681;-81
2022/03/15 08:21:31;;;;;;;18.53;12.87;;;;;;;;;;5027631;28;20237;-81
2022/03/15 08:23:59;;;;;;;19.63;12.50;;;;;;;;;;5021556;28;20259;-83
2022/03/15 08:26:26;;;;;;;17.47;11.00;;;;;;;;;;5019575;28;20241;-81
2022/03/15 08:28:53;;;;;;;17.27;10.87;;;;;;;;;;5038564;28;20213;-80
2022/03/15 08:31:20;;;;;;;16.17;11.10;;;;;;;;;;5040198;28;20237;-84
2022/03/15 08:33:48;;;;;;;22.33;10.30;;;;;;;;;;5040606;28;20218;-81
2022/03/15 08:36:15;;;;;;;22.23;10.10;;;;;;;;;;5040154;28;20245;-84
2022/03/15 08:38:42;;;;;;;14.63;9.33;;;;;;;;;;5042184;28;20218;-80
2022/03/15 08:41:12;;;;;;;13.87;9.20;;;;;;;;;;5044628;28;20237;-79
2022/03/15 08:43:39;;;;;;;16.97;8.70;;;;;;;;;;5043038;28;20728;-84
2022/03/15 08:46:06;;;;;;;12.73;8.03;;;;;;;;;;5041310;28;20238;-82
2022/03/15 08:48:33;;;;;;;8.83;7.60;;;;;;;;;;5041624;28;20209;-83
2022/03/15 08:51:01;;;;;;;10.30;8.33;;;;;;;;;;5041813;28;20231;-81
2022/03/15 08:53:28;;;;;;;9.50;7.30;;;;;;;;;;5040715;28;20207;-81
2022/03/15 08:55:55;;;;;;;9.07;6.90;;;;;;;;;;5034319;28;20246;-85
2022/03/15 08:58:24;;;;;;;11.87;6.60;;;;;;;;;;5033348;28;20766;-84
2022/03/15 09:00:52;;;;;;;9.43;6.63;;;;;;;;;;5033563;28;20234;-85
2022/03/15 09:03:19;;;;;;;9.97;6.30;;;;;;;;;;5033820;28;20222;-84
2022/03/15 09:05:46;;;;;;;7.57;5.57;;;;;;;;;;5033098;28;20245;-84
2022/03/15 09:08:13;;;;;;;9.20;6.07;;;;;;;;;;5032772;28;20210;-85
2022/03/15 09:10:42;;;;;;;8.87;6.97;;;;;;;;;;5032930;28;20341;-85
2022/03/15 09:13:10;;;;;;;8.90;5.90;;;;;;;;;;5034380;28;20206;-84
2022/03/15 09:15:39;;;;;;;10.07;5.80;;;;;;;;;;5034837;28;20239;-85
2022/03/15 09:18:07;;;;;;;5.97;5.37;;;;;;;;;;5034144;28;20211;-84
2022/03/15 09:20:34;;;;;;;9.07;5.97;;;;;;;;;;5037738;28;20238;-83
2022/03/15 09:23:01;;;;;;;9.50;5.63;;;;;;;;;;5033636;28;20226;-84
2022/03/15 09:25:30;;;;;;;8.13;5.37;;;;;;;;;;5033388;28;20239;-85
2022/03/15 09:27:57;;;;;;;9.63;5.23;;;;;;;;;;5032912;28;20217;-87
2022/03/15 09:30:24;;;;;;;7.37;4.90;;;;;;;;;;5032420;28;20245;-87
2022/03/15 09:32:52;;;;;;;6.07;5.47;;;;;;;;;;5033319;28;20203;-85
2022/03/15 09:35:19;;;;;;;7.07;5.27;;;;;;;;;;5034507;28;20249;-85
2022/03/15 09:37:49;;;;;;;5.13;4.63;;;;;;;;;;5039737;28;20203;-86
2022/03/15 09:40:16;;;;;;;9.13;5.00;;;;;;;;;;5033087;28;20899;-85
2022/03/15 09:42:44;;;;;;;10.00;4.73;;;;;;;;;;5034186;28;20336;-85
2022/03/15 09:45:11;;;;;;;7.27;5.23;;;;;;;;;;5032715;28;20249;-84
2022/03/15 09:47:39;;;;;;;5.57;4.63;;;;;;;;;;5032327;28;20203;-85
2022/03/15 09:50:09;;;;;;;6.37;4.50;;;;;;;;;;5032066;28;20242;-85
2022/03/15 09:52:36;;;;;;;7.57;4.87;;;;;;;;;;5032464;28;20655;-84
2022/03/15 09:55:03;;;;;;;8.60;4.97;;;;;;;;;;5032496;28;20238;-83
2022/03/15 09:57:31;;;;;;;6.27;4.50;;;;;;;;;;5031928;28;20722;-84
2022/03/15 10:00:00;;;;;;;5.60;4.63;;;;;;;;;;5031645;28;20262;-85
2022/03/15 10:02:27;;;;;;;5.77;4.57;;;;;;;;;;5027310;28;20231;-85
2022/03/15 10:04:54;;;;;;;5.20;4.70;;;;;;;;;;5027707;28;20238;-85
2022/03/15 10:07:22;;;;;;;8.07;4.70;;;;;;;;;;5031766;28;20614;-85
2022/03/15 10:09:51;;;;;;;8.63;5.30;;;;;;;;;;5032049;28;20317;-84
2022/03/15 10:12:19;;;;;;;6.57;5.93;;;;;;;;;;5026587;28;20214;-84
2022/03/15 10:14:48;;;;;;;10.93;4.87;;;;;;;;;;5031446;28;20238;-83
2022/03/15 10:17:16;;;;;;;6.30;4.70;;;;;;;;;;5031397;28;20206;-85
2022/03/15 10:19:52;;;;;;;7.53;5.10;;;;;;;;;;5031363;28;20292;-85
2022/03/15 10:22:22;;;;;;;9.33;5.43;;;;;;;;;;5031363;28;20258;-84
2022/03/15 10:24:50;;;;;;;7.03;4.80;;;;;;;;;;5031505;28;20244;-85
2022/03/15 10:27:17;;;;;;;6.47;5.13;;;;;;;;;;5031198;28;20264;-85
2022/03/15 10:29:45;;;;;;;8.50;5.03;;;;;;;;;;5031542;28;20234;-83
2022/03/15 10:32:12;;;;;;;10.80;6.23;;;;;;;;;;5031751;28;20202;-85
2022/03/15 10:34:39;;;;;;;6.53;5.03;;;;;;;;;;5031466;28;20617;-85
2022/03/15 10:37:06;;;;;;;10.67;5.33;;;;;;;;;;5031614;28;20237;-84
2022/03/15 10:39:34;;;;;;;8.63;5.70;;;;;;;;;;5030543;28;20207;-85
2022/03/15 10:42:03;;;;;;;10.57;5.53;;;;;;;;;;5031886;28;20202;-84
2022/03/15 10:44:31;;;;;;;10.83;5.70;;;;;;;;;;5030897;28;20223;-85
2022/03/15 10:46:58;;;;;;;10.23;5.13;;;;;;;;;;5031135;28;20667;-84
2022/03/15 10:49:26;;;;;;;11.30;5.40;;;;;;;;;;5031232;28;20213;-84
2022/03/15 10:51:53;;;;;;;8.70;5.30;;;;;;;;;;5031430;28;20210;-83
2022/03/15 10:54:23;;;;;;;9.63;5.50;;;;;;;;;;5031210;28;20226;-85
2022/03/15 10:56:55;;;;;;;6.97;5.37;;;;;;;;;;5031386;28;20214;-85
2022/03/15 10:59:23;;;;;;;8.73;5.53;;;;;;;;;;5031271;28;20202;-85
2022/03/15 11:01:51;;;;;;;7.23;5.47;;;;;;;;;;5031644;28;20226;-84
2022/03/15 11:04:18;;;;;;;9.17;5.80;;;;;;;;;;5029480;28;20748;-85
2022/03/15 11:06:46;;;;;;;6.20;5.13;;;;;;;;;;5030860;28;20198;-83
2022/03/15 11:09:18;;;;;;;8.03;6.20;;;;;;;;;;5031579;28;20551;-84
2022/03/15 11:11:47;;;;;;;8.17;6.07;;;;;;;;;;5031606;28;20250;-84
2022/03/15 11:14:15;;;;;;;8.07;5.90;;;;;;;;;;5035667;28;20226;-84
2022/03/15 11:16:45;;;;;;;7.57;6.20;;;;;;;;;;5034242;28;20726;-84
2022/03/15 11:19:14;;;;;;;13.50;6.00;;;;;;;;;;5035003;28;20290;-85
2022/03/15 11:21:43;;;;;;;7.43;6.20;;;;;;;;;;5034862;28;20238;-82
2022/03/15 11:24:12;;;;;;;12.33;6.97;;;;;;;;;;5035202;28;20223;-84
2022/03/15 11:26:44;;;;;;;9.20;6.33;;;;;;;;;;5034740;28;20234;-83
2022/03/15 11:29:11;;;;;;;11.00;6.63;;;;;;;;;;5035427;28;20226;-83
2022/03/15 11:31:41;;;;;;;10.63;6.50;;;;;;;;;;5034807;28;20231;-83
2022/03/15 11:34:08;;;;;;;8.57;6.63;;;;;;;;;;5035292;28;20233;-84
2022/03/15 11:36:35;;;;;;;10.10;7.13;;;;;;;;;;5033452;28;20284;-84
2022/03/15 11:39:02;;;;;;;10.27;6.63;;;;;;;;;;5035057;28;20187;-82
2022/03/15 11:41:29;;;;;;;11.07;7.20;;;;;;;;;;5034747;28;20237;-85
2022/03/15 11:44:01;;;;;;;11.40;7.40;;;;;;;;;;5034594;28;20257;-82
2022/03/15 11:46:30;;;;;;;9.63;6.17;;;;;;;;;;5034297;28;20870;-84
2022/03/15 11:49:05;;;;;;;8.87;6.60;;;;;;;;;;5035825;28;20233;-83
2022/03/15 11:51:39;;;;;;;11.70;6.80;;;;;;;;;;5035705;28;20246;-85
2022/03/15 11:54:11;;;;;;;9.40;6.47;;;;;;;;;;5037303;28;20293;-83
2022/03/15 11:56:40;;;;;;;14.30;5.63;;;;;;;;;;5035407;28;20254;-85
2022/03/15 11:59:07;;;;;;;9.90;6.87;;;;;;;;;;5035105;28;20284;-83
2022/03/15 12:01:43;;;;;;;8.60;6.17;;;;;;;;;;5034534;28;20234;-85
2022/03/15 12:04:12;;;;;;;11.00;6.60;;;;;;;;;;5034752;28;20234;-84
2022/03/15 12:06:39;;;;;;;8.83;6.37;;;;;;;;;;5037764;28;20671;-83
2022/03/15 12:09:12;;;;;;;10.27;6.07;;;;;;;;;;5043096;28;20211;-83
2022/03/15 12:11:40;;;;;;;16.00;6.70;;;;;;;;;;5042079;28;20701;-84
2022/03/15 12:14:08;;;;;;;13.33;6.07;;;;;;;;;;5043233;28;20627;-84
2022/03/15 12:16:41;;;;;;;7.87;6.03;;;;;;;;;;5042286;28;20744;-84
2022/03/15 12:19:15;;;;;;;13.90;7.00;;;;;;;;;;5042033;28;20229;-83
2022/03/15 12:21:49;;;;;;;9.27;6.90;;;;;;;;;;5039710;28;20234;-83
2022/03/15 12:24:18;;;;;;;7.90;6.90;;;;;;;;;;5039210;28;20219;-84
2022/03/15 12:26:47;;;;;;;10.53;6.50;;;;;;;;;;5040683;28;20655;-83
2022/03/15 12:29:14;;;;;;;8.77;6.77;;;;;;;;;;5041577;28;20237;-83
2022/03/15 12:31:41;;;;;;;9.37;7.17;;;;;;;;;;5037676;28;20242;-82
2022/03/15 12:34:10;;;;;;;8.87;6.70;;;;;;;;;;5036264;28;20702;-82
2022/03/15 12:36:37;;;;;;;9.97;6.93;;;;;;;;;;5036826;28;20241;-81
2022/03/15 12:39:10;;;;;;;12.33;6.70;;;;;;;;;;5037140;28;20210;-82
2022/03/15 12:41:39;;;;;;;12.80;7.30;;;;;;;;;;5037624;28;20285;-82
2022/03/15 12:44:06;;;;;;;12.53;7.00;;;;;;;;;;5034201;28;20234;-83
2022/03/15 12:46:33;;;;;;;13.03;7.10;;;;;;;;;;5035074;28;20241;-82
2022/03/15 12:49:06;;;;;;;12.10;6.60;;;;;;;;;;5037573;28;20203;-82
2022/03/15 12:51:37;;;;;;;6.83;5.97;;;;;;;;;;5036062;28;20599;-82
2022/03/15 12:54:06;;;;;;;9.77;6.33;;;;;;;;;;5037541;28;20249;-82
2022/03/15 12:56:42;;;;;;;10.33;6.43;;;;;;;;;;5036171;28;20230;-82
2022/03/15 12:59:11;;;;;;;8.50;6.60;;;;;;;;;;5038138;28;20214;-83
2022/03/15 13:01:39;;;;;;;9.60;6.70;;;;;;;;;;5038021;28;20235;-81
2022/03/15 13:04:07;;;;;;;11.97;6.57;;;;;;;;;;5037618;28;20321;-81
2022/03/15 13:06:34;;;;;;;16.53;7.87;;;;;;;;;;5035424;28;20323;-82
2022/03/15 13:09:01;;;;;;;10.10;6.57;;;;;;;;;;5036727;28;20696;-81
2022/03/15 13:11:29;;;;;;;12.10;7.63;;;;;;;;;;5034794;28;20287;-81
2022/03/15 13:13:57;;;;;;;9.83;7.17;;;;;;;;;;5030092;28;20221;-81
2022/03/15 13:16:25;;;;;;;11.57;7.40;;;;;;;;;;5037395;28;20257;-81
2022/03/15 13:18:52;;;;;;;11.30;7.60;;;;;;;;;;5038184;28;20203;-82
2022/03/15 13:21:20;;;;;;;13.23;8.20;;;;;;;;;;5037574;28;20246;-81
2022/03/15 13:23:48;;;;;;;12.97;7.77;;;;;;;;;;5034732;28;20235;-81
2022/03/15 13:26:17;;;;;;;12.73;8.67;;;;;;;;;;5035442;28;20239;-81
2022/03/15 13:28:46;;;;;;;11.13;7.77;;;;;;;;;;5037177;28;20261;-81
2022/03/15 13:31:16;;;;;;;11.00;7.77;;;;;;;;;;5035694;28;20239;-81
2022/03/15 13:33:45;;;;;;;11.63;7.73;;;;;;;;;;5036555;28;20229;-80
2022/03/15 13:36:14;;;;;;;10.60;8.20;;;;;;;;;;5024436;28;20238;-81
2022/03/15 13:38:44;;;;;;;11.47;8.40;;;;;;;;;;5016527;28;20271;-81
2022/03/15 13:41:13;;;;;;;11.33;7.87;;;;;;;;;;5017091;28;20673;-81
2022/03/15 13:43:41;;;;;;;11.90;8.23;;;;;;;;;;5017955;28;20219;-82
2022/03/15 13:46:09;;;;;;;12.40;8.13;;;;;;;;;;5017039;28;20258;-82
2022/03/15 13:48:38;;;;;;;8.87;7.97;;;;;;;;;;5017941;28;20204;-81
2022/03/15 13:51:07;;;;;;;11.57;7.90;;;;;;;;;;5017303;28;20239;-82
2022/03/15 13:53:36;;;;;;;15.07;8.60;;;;;;;;;;5016177;28;20230;-82
2022/03/15 13:56:11;;;;;;;10.13;7.77;;;;;;;;;;5016759;28;20239;-81
2022/03/15 13:58:42;;;;;;;12.53;8.30;;;;;;;;;;5017188;28;20221;-81
2022/03/15 14:01:09;;;;;;;10.63;8.23;;;;;;;;;;5016531;28;20243;-82
2022/03/15 14:03:38;;;;;;;11.80;8.60;;;;;;;;;;5015934;28;20285;-82
2022/03/15 14:06:06;;;;;;;15.03;8.83;;;;;;;;;;5032140;28;20230;-82
2022/03/15 14:08:43;;;;;;;10.93;8.47;;;;;;;;;;5023041;28;20212;-82
2022/03/15 14:11:12;;;;;;;11.20;8.83;;;;;;;;;;5017182;28;20235;-81
2022/03/15 14:13:41;;;;;;;13.00;8.67;;;;;;;;;;5016356;28;20204;-81
2022/03/15 14:16:08;;;;;;;15.73;8.90;;;;;;;;;;5034000;28;20258;-81
2022/03/15 14:18:37;;;;;;;12.00;8.47;;;;;;;;;;5035295;28;20218;-81
2022/03/15 14:21:07;;;;;;;12.77;8.77;;;;;;;;;;5035307;28;20241;-81
2022/03/15 14:23:34;;;;;;;12.03;8.87;;;;;;;;;;5036013;28;20687;-82
2022/03/15 14:26:04;;;;;;;13.07;8.60;;;;;;;;;;5036569;28;20234;-80
2022/03/15 14:28:31;;;;;;;11.17;8.97;;;;;;;;;;5036695;28;20264;-82
2022/03/15 14:31:05;;;;;;;11.30;8.73;;;;;;;;;;5032090;28;20237;-81
2022/03/15 14:33:32;;;;;;;11.87;8.67;;;;;;;;;;5032776;28;20216;-80
2022/03/15 14:36:01;;;;;;;15.47;9.57;;;;;;;;;;5033324;28;20240;-81
2022/03/15 14:38:37;;;;;;;12.10;8.70;;;;;;;;;;5031863;28;20225;-82
2022/03/15 14:41:04;;;;;;;11.57;7.97;;;;;;;;;;5032432;28;20242;-81